Kt Birdie — 3FUJ7 — position and weather

sailwx.info

Track history (hours):
 
Tides and Currents Weather Stations Pressure Air Temp Water Temp Dewpoint Dewpoint Depression Visibility Wind Speed Wind Dir Waves Ship Positions

Kt Birdie

Last reported at 2014-Jul-28 21:30 UTC. Time now 2014-Jul-28 22:40 UTC.
Position N 38°54' E 118°07'.

Length 225 m; draft 13.3 m.

Type: Cargo ship. MMSI: 354803000.

Date/timePositionNaut miles runAvg speedWind from/ knotsBaromVisibWave heightAir tempDewpointWater temp
2014-Jul-28 21:30N 38°54' E 118°07'0 0.2
2014-Jul-28 20:27N 38°54' E 118°07'0 0.0
2014-Jul-28 19:21N 38°54' E 118°07'0 0.0
2014-Jul-28 18:15N 38°54' E 118°07'0 0.0
2014-Jul-28 17:33N 38°54' E 118°07'0 0.0
2014-Jul-28 16:33N 38°54' E 118°07'0 0.2
2014-Jul-28 15:33N 38°54' E 118°07'0 0.2
2014-Jul-28 14:33N 38°54' E 118°07'0 0.0
2014-Jul-28 13:33N 38°54' E 118°07'0 0.0
2014-Jul-28 12:33N 38°54' E 118°07'0 0.0
2014-Jul-28 11:30N 38°54' E 118°07'0 0.1
2014-Jul-28 10:27N 38°54' E 118°07'0 0.2
2014-Jul-28 09:33N 38°54' E 118°07'0 0.1
2014-Jul-28 08:30N 38°54' E 118°07'0 0.0
2014-Jul-28 07:33N 38°54' E 118°07'0 0.0
2014-Jul-28 06:33N 38°54' E 118°07'0 0.0
2014-Jul-28 05:33N 38°54' E 118°07'0 0.0
2014-Jul-28 03:27N 38°54' E 118°07'0 0.1
2014-Jul-28 00:33N 38°54' E 118°07'0 0.0
2014-Jul-27 22:33N 38°54' E 118°07'0 0.0
2014-Jul-27 20:33N 38°54' E 118°07'0 0.1
2014-Jul-27 18:33N 38°54' E 118°07'0 0.0
2014-Jul-27 17:30N 38°54' E 118°07'0 0.0
2014-Jul-27 16:33N 38°54' E 118°07'0 0.0
2014-Jul-27 15:30N 38°54' E 118°07'0 0.2
2014-Jul-27 14:33N 38°54' E 118°07'0 0.0
2014-Jul-27 13:24N 38°54' E 118°07'0 0.0
2014-Jul-27 12:33N 38°54' E 118°07'0 0.0
2014-Jul-27 11:33N 38°54' E 118°07'0 0.0
2014-Jul-27 10:33N 38°54' E 118°07'0 0.1
2014-Jul-27 09:30N 38°54' E 118°07'0 0.2
2014-Jul-27 08:33N 38°54' E 118°07'0 0.0
2014-Jul-27 07:30N 38°54' E 118°07'0 0.0
2014-Jul-27 06:27N 38°54' E 118°07'0 0.0
2014-Jul-27 05:33N 38°54' E 118°07'0 0.0
2014-Jul-27 03:15N 38°54' E 118°07'0 0.1
2014-Jul-26 23:15N 38°54' E 118°07'0 0.0
2014-Jul-26 22:03N 38°54' E 118°07'0 0.1
2014-Jul-26 21:15N 38°54' E 118°07'0 0.1
2014-Jul-26 20:33N 38°54' E 118°07'0 0.2
2014-Jul-26 19:30N 38°54' E 118°07'0 0.0
2014-Jul-26 18:27N 38°54' E 118°07'0 0.0
2014-Jul-26 17:27N 38°54' E 118°07'0 0.0
2014-Jul-26 16:33N 38°54' E 118°07'0 0.0
2014-Jul-26 15:30N 38°54' E 118°07'0 0.2
2014-Jul-26 14:33N 38°54' E 118°07'0 0.1
2014-Jul-26 13:30N 38°54' E 118°07'0 0.0
2014-Jul-26 12:30N 38°54' E 118°07'0 0.0
2014-Jul-26 11:27N 38°54' E 118°07'0 0.0
2014-Jul-26 10:30N 38°54' E 118°07'0 0.1
2014-Jul-26 09:33N 38°54' E 118°07'0 0.1
2014-Jul-26 08:33N 38°54' E 118°07'0 0.1
2014-Jul-26 07:33N 38°54' E 118°07'0 0.0
2014-Jul-26 06:33N 38°54' E 118°07'0 0.0
2014-Jul-26 05:30N 38°54' E 118°07'0 0.0
2014-Jul-26 04:33N 38°54' E 118°07'0 0.0
2014-Jul-26 02:27N 38°54' E 118°07'0 0.1
2014-Jul-26 01:06N 38°54' E 118°07'0 0.0
2014-Jul-25 23:21N 38°54' E 118°07'0 0.0
2014-Jul-25 22:30N 38°54' E 118°07'0 0.0
2014-Jul-25 21:30N 38°54' E 118°07'0 0.0
2014-Jul-25 20:21N 38°54' E 118°07'0 0.0
2014-Jul-25 19:30N 38°54' E 118°07'0 0.0
2014-Jul-25 18:33N 38°54' E 118°07'0 0.2
2014-Jul-25 17:33N 38°54' E 118°07'0 0.1
2014-Jul-25 16:33N 38°54' E 118°07'0 0.0
2014-Jul-25 13:30N 38°54' E 118°07'0 0.2
2014-Jul-25 12:33N 38°54' E 118°07'0 0.0
2014-Jul-25 11:33N 38°54' E 118°07'0 0.0
2014-Jul-25 10:30N 38°54' E 118°07'0 0.0
2014-Jul-25 09:33N 38°54' E 118°07'0 0.1
2014-Jul-25 08:24N 38°54' E 118°07'0 0.1
2014-Jul-25 07:30N 38°54' E 118°07'1 0.6
2014-Jul-25 06:33N 38°53' E 118°07'7 6.9
2014-Jul-25 05:33N 38°57' E 117°59'9 9.3
2014-Jul-25 04:33N 38°58' E 117°47'2 2.1
2014-Jul-25 03:33N 38°59' E 117°45'0 0.0
2014-Jul-25 02:30N 38°59' E 117°45'0 0.0
2014-Jul-25 01:34N 38°59' E 117°45'0 0.0
2014-Jul-25 00:30N 38°59' E 117°45'0 0.0
2014-Jul-24 23:33N 38°59' E 117°45'0 0.0
2014-Jul-24 22:33N 38°59' E 117°45'0 0.0
2014-Jul-24 21:33N 38°59' E 117°45'0 0.0
2014-Jul-24 20:33N 38°59' E 117°45'0 0.0
2014-Jul-24 19:33N 38°59' E 117°45'0 0.0
2014-Jul-24 18:33N 38°59' E 117°45'0 0.0
2014-Jul-24 17:30N 38°59' E 117°45'0 0.1
2014-Jul-24 16:33N 38°59' E 117°45'4 3.8
2014-Jul-24 15:33N 38°58' E 117°49'1111.0
2014-Jul-24 14:33N 38°56' E 118°03'4 3.6
2014-Jul-24 13:29N 38°54' E 118°07'0 0.1
2014-Jul-24 10:17N 38°54' E 118°08'0 0.0
2014-Jul-24 09:32N 38°54' E 118°08'0 0.0
2014-Jul-24 08:32N 38°54' E 118°08'0 0.2
2014-Jul-24 06:33N 38°54' E 118°07'3 0.6
2014-Jul-24 01:03N 38°52' E 118°04'0 0.3
2014-Jul-24 00:27N 38°51' E 118°05'0 0.1
2014-Jul-23 23:21N 38°52' E 118°05'0 0.0
2014-Jul-23 22:33N 38°51' E 118°05'0 0.0
2014-Jul-23 21:27N 38°51' E 118°05'0 0.0
2014-Jul-23 20:27N 38°52' E 118°05'0 0.0
2014-Jul-23 19:03N 38°51' E 118°05'1 0.5
2014-Jul-23 16:30N 38°52' E 118°06'10210.8
2014-Jul-23 07:04N 38°42' E 120°16'910.7
2014-Jul-23 06:12N 38°41' E 120°28'1111.1
2014-Jul-23 05:15N 38°39' E 120°41'811.6
2014-Jul-23 04:34N 38°37' E 120°51'1312.0
2014-Jul-23 03:28N 38°31' E 121°06'1112.0
2014-Jul-23 02:33N 38°26' E 121°18'1212.0
2014-Jul-23 01:33N 38°20' E 121°31'1211.7
2014-Jul-23 00:33N 38°14' E 121°44'1211.4
2014-Jul-22 23:33N 38°08' E 121°57'1111.4
2014-Jul-22 22:33N 38°03' E 122°10'1111.0
2014-Jul-22 21:33N 37°57' E 122°22'1111.0
2014-Jul-22 20:32N 37°51' E 122°34'1111.0
2014-Jul-22 19:34N 37°46' E 122°46'1110.9
2014-Jul-22 18:34N 37°40' E 122°57'1111.2
2014-Jul-22 17:34N 37°30' E 123°04'1111.2
2014-Jul-22 16:34N 37°20' E 123°09'  
Track history (hours):
 
Tides and Currents Weather Stations Pressure Air Temp Water Temp Dewpoint Dewpoint Depression Visibility Wind Speed Wind Dir Waves Ship Positions

Kt Birdie

Last reported at 2014-Jul-28 21:30 UTC. Time now 2014-Jul-28 22:40 UTC.
Position N 38°54' E 118°07'.

Length 225 m; draft 13.3 m.

Type: Cargo ship. MMSI: 354803000.

Date/timePositionNaut miles runAvg speedWind from/ knotsBaromVisibWave heightAir tempDewpointWater temp
2014-Jul-28 21:30N 38°54' E 118°07'0 0.2
2014-Jul-28 20:27N 38°54' E 118°07'0 0.0
2014-Jul-28 19:21N 38°54' E 118°07'0 0.0
2014-Jul-28 18:15N 38°54' E 118°07'0 0.0
2014-Jul-28 17:33N 38°54' E 118°07'0 0.0
2014-Jul-28 16:33N 38°54' E 118°07'0 0.2
2014-Jul-28 15:33N 38°54' E 118°07'0 0.2
2014-Jul-28 14:33N 38°54' E 118°07'0 0.0
2014-Jul-28 13:33N 38°54' E 118°07'0 0.0
2014-Jul-28 12:33N 38°54' E 118°07'0 0.0
2014-Jul-28 11:30N 38°54' E 118°07'0 0.1
2014-Jul-28 10:27N 38°54' E 118°07'0 0.2
2014-Jul-28 09:33N 38°54' E 118°07'0 0.1
2014-Jul-28 08:30N 38°54' E 118°07'0 0.0
2014-Jul-28 07:33N 38°54' E 118°07'0 0.0
2014-Jul-28 06:33N 38°54' E 118°07'0 0.0
2014-Jul-28 05:33N 38°54' E 118°07'0 0.0
2014-Jul-28 03:27N 38°54' E 118°07'0 0.1
2014-Jul-28 00:33N 38°54' E 118°07'0 0.0
2014-Jul-27 22:33N 38°54' E 118°07'0 0.0
2014-Jul-27 20:33N 38°54' E 118°07'0 0.1
2014-Jul-27 18:33N 38°54' E 118°07'0 0.0
2014-Jul-27 17:30N 38°54' E 118°07'0 0.0
2014-Jul-27 16:33N 38°54' E 118°07'0 0.0
2014-Jul-27 15:30N 38°54' E 118°07'0 0.2
2014-Jul-27 14:33N 38°54' E 118°07'0 0.0
2014-Jul-27 13:24N 38°54' E 118°07'0 0.0
2014-Jul-27 12:33N 38°54' E 118°07'0 0.0
2014-Jul-27 11:33N 38°54' E 118°07'0 0.0
2014-Jul-27 10:33N 38°54' E 118°07'0 0.1
2014-Jul-27 09:30N 38°54' E 118°07'0 0.2
2014-Jul-27 08:33N 38°54' E 118°07'0 0.0
2014-Jul-27 07:30N 38°54' E 118°07'0 0.0
2014-Jul-27 06:27N 38°54' E 118°07'0 0.0
2014-Jul-27 05:33N 38°54' E 118°07'0 0.0
2014-Jul-27 03:15N 38°54' E 118°07'0 0.1
2014-Jul-26 23:15N 38°54' E 118°07'0 0.0
2014-Jul-26 22:03N 38°54' E 118°07'0 0.1
2014-Jul-26 21:15N 38°54' E 118°07'0 0.1
2014-Jul-26 20:33N 38°54' E 118°07'0 0.2
2014-Jul-26 19:30N 38°54' E 118°07'0 0.0
2014-Jul-26 18:27N 38°54' E 118°07'0 0.0
2014-Jul-26 17:27N 38°54' E 118°07'0 0.0
2014-Jul-26 16:33N 38°54' E 118°07'0 0.0
2014-Jul-26 15:30N 38°54' E 118°07'0 0.2
2014-Jul-26 14:33N 38°54' E 118°07'0 0.1
2014-Jul-26 13:30N 38°54' E 118°07'0 0.0
2014-Jul-26 12:30N 38°54' E 118°07'0 0.0
2014-Jul-26 11:27N 38°54' E 118°07'0 0.0
2014-Jul-26 10:30N 38°54' E 118°07'0 0.1
2014-Jul-26 09:33N 38°54' E 118°07'0 0.1
2014-Jul-26 08:33N 38°54' E 118°07'0 0.1
2014-Jul-26 07:33N 38°54' E 118°07'0 0.0
2014-Jul-26 06:33N 38°54' E 118°07'0 0.0
2014-Jul-26 05:30N 38°54' E 118°07'0 0.0
2014-Jul-26 04:33N 38°54' E 118°07'0 0.0
2014-Jul-26 02:27N 38°54' E 118°07'0 0.1
2014-Jul-26 01:06N 38°54' E 118°07'0 0.0
2014-Jul-25 23:21N 38°54' E 118°07'0 0.0
2014-Jul-25 22:30N 38°54' E 118°07'0 0.0
2014-Jul-25 21:30N 38°54' E 118°07'0 0.0
2014-Jul-25 20:21N 38°54' E 118°07'0 0.0
2014-Jul-25 19:30N 38°54' E 118°07'0 0.0
2014-Jul-25 18:33N 38°54' E 118°07'0 0.2
2014-Jul-25 17:33N 38°54' E 118°07'0 0.1
2014-Jul-25 16:33N 38°54' E 118°07'0 0.0
2014-Jul-25 13:30N 38°54' E 118°07'0 0.2
2014-Jul-25 12:33N 38°54' E 118°07'0 0.0
2014-Jul-25 11:33N 38°54' E 118°07'0 0.0
2014-Jul-25 10:30N 38°54' E 118°07'0 0.0
2014-Jul-25 09:33N 38°54' E 118°07'0 0.1
2014-Jul-25 08:24N 38°54' E 118°07'0 0.1
2014-Jul-25 07:30N 38°54' E 118°07'1 0.6
2014-Jul-25 06:33N 38°53' E 118°07'7 6.9
2014-Jul-25 05:33N 38°57' E 117°59'9 9.3
2014-Jul-25 04:33N 38°58' E 117°47'2 2.1
2014-Jul-25 03:33N 38°59' E 117°45'0 0.0
2014-Jul-25 02:30N 38°59' E 117°45'0 0.0
2014-Jul-25 01:34N 38°59' E 117°45'0 0.0
2014-Jul-25 00:30N 38°59' E 117°45'0 0.0
2014-Jul-24 23:33N 38°59' E 117°45'0 0.0
2014-Jul-24 22:33N 38°59' E 117°45'0 0.0
2014-Jul-24 21:33N 38°59' E 117°45'0 0.0
2014-Jul-24 20:33N 38°59' E 117°45'0 0.0
2014-Jul-24 19:33N 38°59' E 117°45'0 0.0
2014-Jul-24 18:33N 38°59' E 117°45'0 0.0
2014-Jul-24 17:30N 38°59' E 117°45'0 0.1
2014-Jul-24 16:33N 38°59' E 117°45'4 3.8
2014-Jul-24 15:33N 38°58' E 117°49'1111.0
2014-Jul-24 14:33N 38°56' E 118°03'4 3.6
2014-Jul-24 13:29N 38°54' E 118°07'0 0.1
2014-Jul-24 10:17N 38°54' E 118°08'0 0.0
2014-Jul-24 09:32N 38°54' E 118°08'0 0.0
2014-Jul-24 08:32N 38°54' E 118°08'0 0.2
2014-Jul-24 06:33N 38°54' E 118°07'3 0.6
2014-Jul-24 01:03N 38°52' E 118°04'0 0.3
2014-Jul-24 00:27N 38°51' E 118°05'0 0.1
2014-Jul-23 23:21N 38°52' E 118°05'0 0.0
2014-Jul-23 22:33N 38°51' E 118°05'0 0.0
2014-Jul-23 21:27N 38°51' E 118°05'0 0.0
2014-Jul-23 20:27N 38°52' E 118°05'0 0.0
2014-Jul-23 19:03N 38°51' E 118°05'1 0.5
2014-Jul-23 16:30N 38°52' E 118°06'10210.8
2014-Jul-23 07:04N 38°42' E 120°16'910.7
2014-Jul-23 06:12N 38°41' E 120°28'1111.1
2014-Jul-23 05:15N 38°39' E 120°41'811.6
2014-Jul-23 04:34N 38°37' E 120°51'1312.0
2014-Jul-23 03:28N 38°31' E 121°06'1112.0
2014-Jul-23 02:33N 38°26' E 121°18'1212.0
2014-Jul-23 01:33N 38°20' E 121°31'1211.7
2014-Jul-23 00:33N 38°14' E 121°44'1211.4
2014-Jul-22 23:33N 38°08' E 121°57'1111.4
2014-Jul-22 22:33N 38°03' E 122°10'1111.0
2014-Jul-22 21:33N 37°57' E 122°22'1111.0
2014-Jul-22 20:32N 37°51' E 122°34'1111.0
2014-Jul-22 19:34N 37°46' E 122°46'1110.9
2014-Jul-22 18:34N 37°40' E 122°57'1111.2
2014-Jul-22 17:34N 37°30' E 123°04'1111.2
2014-Jul-22 16:34N 37°20' E 123°09'  

Dump ship's entire track history